Time;durP1;ratioP1;P1;durP2;ratioP2;P2;SDS_P1;SDS_P2;PMS_P1;PMS_P2;Temp;Humidity;BMP_temperature;BMP_pressure;BME280_temperature;BME280_humidity;BME280_pressure;Samples;Min_cycle;Max_cycle;Signal;HPM_P1;HPM_P2
2022/08/24 00:02:27;;;;;;;4.47;1.60;;;;;;;18.83;62.52;101189.44;6041997;28;20061;-64
2022/08/24 00:05:23;;;;;;;8.13;2.17;;;;;;;18.76;62.49;101195.75;6046368;28;20030;-63
2022/08/24 00:08:18;;;;;;;7.03;2.10;;;;;;;18.73;62.67;101183.53;6046903;28;20034;-63
2022/08/24 00:11:15;;;;;;;4.13;1.90;;;;;;;18.69;62.67;101166.13;6046096;28;20033;-64
2022/08/24 00:14:10;;;;;;;7.00;1.90;;;;;;;18.69;63.13;101182.25;6046874;28;20041;-63
2022/08/24 00:17:06;;;;;;;5.95;1.80;;;;;;;18.70;62.75;101167.78;6039271;28;20034;-64
2022/08/24 00:20:02;;;;;;;3.63;1.80;;;;;;;18.75;63.01;101184.16;6044423;28;20037;-64
2022/08/24 00:22:57;;;;;;;3.05;1.48;;;;;;;18.70;63.03;101177.69;6044284;28;20030;-64
2022/08/24 00:25:53;;;;;;;4.70;1.63;;;;;;;18.66;63.29;101179.94;6022541;28;20037;-63
2022/08/24 00:28:48;;;;;;;4.68;1.60;;;;;;;18.66;63.31;101171.88;6022721;28;20276;-63
2022/08/24 00:31:44;;;;;;;3.55;1.58;;;;;;;18.77;63.03;101167.88;6021813;28;20038;-64
2022/08/24 00:34:39;;;;;;;6.63;1.60;;;;;;;18.71;62.89;101164.06;6022315;28;20038;-65
2022/08/24 00:37:35;;;;;;;5.23;1.90;;;;;;;18.87;63.00;101169.22;6022730;28;20045;-65
2022/08/24 00:40:35;;;;;;;7.15;3.05;;;;;;;19.09;62.86;101188.91;6041001;28;20105;-64
2022/08/24 00:43:32;;;;;;;6.22;2.30;;;;;;;18.61;63.37;101176.97;6046102;28;20524;-66
2022/08/24 00:46:29;;;;;;;5.00;1.52;;;;;;;18.17;65.27;101194.91;6045774;28;20029;-65
2022/08/24 00:49:30;;;;;;;8.38;2.20;;;;;;;17.66;67.12;101183.97;6038478;28;20037;-65
2022/08/24 00:52:32;;;;;;;3.63;1.55;;;;;;;17.40;68.06;101182.63;6045239;28;20052;-64
2022/08/24 00:55:33;;;;;;;4.03;1.65;;;;;;;17.21;68.94;101183.91;6045891;28;20034;-65
2022/08/24 00:58:36;;;;;;;4.28;1.83;;;;;;;17.23;69.51;101187.25;6045127;28;20034;-65
2022/08/24 01:01:33;;;;;;;4.05;1.67;;;;;;;17.40;69.00;101187.97;6045501;28;20108;-65
2022/08/24 01:04:35;;;;;;;6.38;3.30;;;;;;;17.50;69.91;101183.22;6044863;28;20065;-65
2022/08/24 01:07:31;;;;;;;15.23;6.93;;;;;;;17.27;69.97;101181.38;6044592;28;20037;-65
2022/08/24 01:10:30;;;;;;;11.45;5.75;;;;;;;17.77;69.88;101188.88;6043938;28;20404;-64
2022/08/24 01:13:25;;;;;;;7.13;4.22;;;;;;;18.09;68.38;101195.81;6060673;28;20116;-65
2022/08/24 01:19:38;;;;;;;4.43;1.83;;;;;;;18.36;65.91;101194.34;6037694;28;20746;-66
2022/08/24 01:22:52;;;;;;;7.05;1.65;;;;;;;18.33;65.65;101192.03;6053285;28;20049;-65
2022/08/24 01:25:47;;;;;;;4.88;2.03;;;;;;;18.15;65.97;101188.88;6032977;28;20129;-65
2022/08/24 01:28:45;;;;;;;5.87;2.07;;;;;;;18.18;65.58;101183.16;6041681;28;20034;-65
2022/08/24 01:31:40;;;;;;;5.18;2.20;;;;;;;18.22;65.83;101187.97;6060285;28;20061;-65
2022/08/24 01:34:35;;;;;;;3.33;1.90;;;;;;;17.97;66.91;101201.78;6045665;28;20044;-66
2022/08/24 01:37:31;;;;;;;4.63;1.90;;;;;;;17.83;66.59;101182.78;6045710;28;20044;-65
2022/08/24 01:40:37;;;;;;;4.05;1.80;;;;;;;17.84;67.15;101200.56;6044691;28;20273;-65
2022/08/24 01:43:32;;;;;;;3.95;1.95;;;;;;;17.77;67.38;101186.19;6043521;28;20496;-65
2022/08/24 01:46:27;;;;;;;4.27;2.10;;;;;;;17.70;67.68;101196.00;6046581;28;20038;-64
2022/08/24 01:49:25;;;;;;;6.72;2.15;;;;;;;17.69;68.09;101190.81;6050023;28;20068;-65
2022/08/24 01:52:23;;;;;;;4.88;2.22;;;;;;;17.79;67.85;101191.41;6049220;28;20072;-65
2022/08/24 01:55:18;;;;;;;5.85;2.08;;;;;;;17.65;67.95;101192.19;6049592;28;20209;-65
2022/08/24 01:58:13;;;;;;;4.40;2.00;;;;;;;17.39;68.94;101192.53;6049812;28;20034;-65
2022/08/24 02:01:09;;;;;;;5.97;2.27;;;;;;;17.64;68.76;101203.91;6048934;28;20018;-66
2022/08/24 02:04:06;;;;;;;5.67;2.00;;;;;;;17.61;68.46;101204.31;6046886;28;20341;-65
2022/08/24 02:07:01;;;;;;;5.53;2.00;;;;;;;17.38;68.91;101185.50;6049398;28;20257;-65
2022/08/24 02:09:57;;;;;;;5.80;2.47;;;;;;;17.30;69.30;101188.22;6047317;28;20029;-65
2022/08/24 02:12:59;;;;;;;6.22;1.90;;;;;;;17.25;69.88;101204.00;6049010;28;20264;-65
2022/08/24 02:15:54;;;;;;;4.65;2.05;;;;;;;17.11;70.41;101194.03;6049136;28;20084;-65
2022/08/24 02:18:49;;;;;;;4.83;2.20;;;;;;;17.39;70.20;101208.63;6049258;28;20444;-66
2022/08/24 02:21:45;;;;;;;6.90;2.00;;;;;;;17.36;69.88;101206.28;6047532;28;20053;-66
2022/08/24 02:24:40;;;;;;;4.80;1.83;;;;;;;17.66;69.40;101216.16;6043249;28;20042;-65
2022/08/24 02:27:36;;;;;;;5.32;1.83;;;;;;;17.72;68.55;101193.97;6048861;28;20380;-65
2022/08/24 02:30:31;;;;;;;4.00;2.03;;;;;;;17.74;68.20;101200.00;6047923;28;20030;-65
2022/08/24 02:33:26;;;;;;;5.50;2.40;;;;;;;17.67;68.29;101198.19;6048959;28;20064;-66
2022/08/24 02:36:22;;;;;;;5.40;2.10;;;;;;;17.79;68.48;101205.66;6048810;28;20276;-66
2022/08/24 02:39:18;;;;;;;5.10;2.17;;;;;;;17.79;69.20;101215.53;6048390;28;20041;-66
2022/08/24 02:42:14;;;;;;;6.00;2.08;;;;;;;17.74;69.17;101226.81;6046621;28;20034;-66
2022/08/24 02:45:09;;;;;;;3.97;2.05;;;;;;;17.10;70.41;101229.88;6037481;28;20152;-66
2022/08/24 02:48:05;;;;;;;5.07;2.10;;;;;;;16.88;72.58;101210.06;6043323;28;20076;-66
2022/08/24 02:51:00;;;;;;;4.43;2.00;;;;;;;17.08;71.19;101223.88;6044464;28;20026;-66
2022/08/24 02:53:57;;;;;;;5.57;2.30;;;;;;;16.60;72.63;101228.41;6038920;28;20022;-65
2022/08/24 02:56:53;;;;;;;5.10;2.05;;;;;;;16.34;73.81;101229.63;6024158;28;20273;-66
2022/08/24 02:59:48;;;;;;;6.70;2.38;;;;;;;16.05;75.07;101232.88;6029076;28;20068;-65
2022/08/24 03:02:44;;;;;;;3.63;2.13;;;;;;;15.72;76.00;101237.38;6046649;28;20037;-66
2022/08/24 03:05:39;;;;;;;5.50;2.53;;;;;;;15.59;77.84;101226.34;6047813;28;20022;-66
2022/08/24 03:08:35;;;;;;;4.07;2.10;;;;;;;16.33;76.00;101236.84;6047660;28;20036;-67
2022/08/24 03:11:30;;;;;;;6.38;2.45;;;;;;;16.06;75.20;101223.84;6045915;28;20275;-66
2022/08/24 03:14:26;;;;;;;4.00;1.95;;;;;;;16.25;76.60;101244.88;6038585;28;20125;-65
2022/08/24 03:17:22;;;;;;;4.43;2.10;;;;;;;16.64;73.87;101232.44;6026432;28;20447;-66
2022/08/24 03:20:20;;;;;;;4.00;2.13;;;;;;;16.89;72.23;101238.53;6028111;28;20489;-65
2022/08/24 03:23:15;;;;;;;5.28;2.50;;;;;;;16.58;72.84;101229.59;6042637;28;20026;-66
2022/08/24 03:26:11;;;;;;;6.20;2.30;;;;;;;16.27;74.50;101234.84;6047970;28;20381;-66
2022/08/24 03:29:06;;;;;;;5.18;2.30;;;;;;;16.09;75.23;101228.84;6047392;28;20040;-65
2022/08/24 03:32:03;;;;;;;8.87;2.70;;;;;;;16.11;75.67;101237.53;6039453;28;20532;-66
2022/08/24 03:34:59;;;;;;;7.50;2.80;;;;;;;16.01;75.74;101221.66;6038218;28;20056;-65
2022/08/24 03:37:54;;;;;;;4.93;2.63;;;;;;;15.99;76.32;101218.31;6036593;28;20537;-65
2022/08/24 03:40:49;;;;;;;6.23;2.53;;;;;;;15.98;76.05;101216.63;6046766;28;20026;-65
2022/08/24 03:43:45;;;;;;;6.07;2.60;;;;;;;16.05;75.97;101235.53;6042035;28;20046;-65
2022/08/24 03:46:40;;;;;;;4.40;2.72;;;;;;;16.23;75.61;101233.50;6041854;28;20761;-65
2022/08/24 03:49:38;;;;;;;6.60;2.60;;;;;;;16.34;75.34;101221.59;6046536;28;20037;-65
2022/08/24 03:52:34;;;;;;;7.20;2.60;;;;;;;16.73;74.03;101227.03;6041677;28;20038;-64
2022/08/24 03:55:29;;;;;;;4.80;2.53;;;;;;;16.63;73.40;101228.06;6046586;28;20053;-66
2022/08/24 03:58:26;;;;;;;5.13;2.27;;;;;;;16.47;73.78;101222.72;6046541;28;20454;-66
2022/08/24 04:01:22;;;;;;;5.55;2.33;;;;;;;16.66;73.62;101226.88;6041784;28;20037;-66
2022/08/24 04:04:17;;;;;;;6.13;2.42;;;;;;;16.51;73.47;101237.47;6044541;28;20108;-65
2022/08/24 04:07:12;;;;;;;6.93;3.10;;;;;;;16.38;73.83;101244.34;6041275;28;20038;-65
2022/08/24 04:10:08;;;;;;;6.50;2.67;;;;;;;16.04;75.36;101232.03;6036584;28;20068;-65
2022/08/24 04:13:05;;;;;;;5.47;2.05;;;;;;;15.93;75.70;101234.19;6045785;28;20026;-66
2022/08/24 04:16:08;;;;;;;4.85;2.38;;;;;;;15.82;76.59;101247.91;6030730;28;20033;-66
2022/08/24 04:19:04;;;;;;;5.85;2.50;;;;;;;15.75;76.87;101247.75;6043630;28;20034;-64
2022/08/24 04:21:59;;;;;;;4.60;2.50;;;;;;;15.61;77.73;101239.53;6038126;28;20093;-65
2022/08/24 04:24:55;;;;;;;9.05;3.13;;;;;;;15.59;77.93;101246.91;6026897;28;20030;-65
2022/08/24 04:27:50;;;;;;;4.75;2.25;;;;;;;15.58;77.88;101246.06;6049916;28;20424;-65
2022/08/24 04:30:50;;;;;;;5.77;2.50;;;;;;;15.71;78.25;101250.94;6037928;28;20022;-65
2022/08/24 04:33:48;;;;;;;6.20;2.67;;;;;;;15.70;77.30;101246.56;6033672;28;20608;-65
2022/08/24 04:36:44;;;;;;;6.68;2.50;;;;;;;15.62;78.23;101262.59;6046444;28;20052;-64
2022/08/24 04:39:40;;;;;;;5.95;2.40;;;;;;;15.68;77.89;101257.41;6046108;28;20030;-66
2022/08/24 04:42:36;;;;;;;5.65;2.38;;;;;;;15.66;77.47;101251.41;6032035;28;20120;-66
2022/08/24 04:45:32;;;;;;;5.20;2.40;;;;;;;15.63;77.67;101264.25;6046036;28;20543;-65
2022/08/24 04:48:28;;;;;;;4.45;2.45;;;;;;;15.75;77.26;101258.44;6035417;28;20376;-66
2022/08/24 04:51:23;;;;;;;3.67;2.30;;;;;;;15.89;77.36;101275.66;6035410;28;20034;-65
2022/08/24 04:54:18;;;;;;;6.37;2.50;;;;;;;15.89;76.50;101273.00;6038110;28;20049;-65
2022/08/24 04:57:14;;;;;;;5.13;2.40;;;;;;;15.76;77.12;101259.28;6044280;28;20024;-65
2022/08/24 05:00:10;;;;;;;5.47;2.60;;;;;;;15.78;76.96;101279.50;6037860;28;20457;-64
2022/08/24 05:03:05;;;;;;;8.20;2.90;;;;;;;15.62;78.46;101278.66;6043116;28;20033;-65
2022/08/24 05:06:01;;;;;;;6.40;2.40;;;;;;;15.70;78.03;101284.00;6046139;28;20077;-64
2022/08/24 05:08:56;;;;;;;5.30;2.80;;;;;;;15.81;77.92;101283.69;6045687;28;20132;-64
2022/08/24 05:11:54;;;;;;;8.30;3.10;;;;;;;15.84;78.27;101288.72;6044695;28;20037;-65
2022/08/24 05:14:49;;;;;;;4.28;2.83;;;;;;;15.81;78.33;101273.00;6037935;28;20037;-64
2022/08/24 05:17:46;;;;;;;5.40;2.77;;;;;;;15.94;77.59;101274.16;6034490;28;20096;-64
2022/08/24 05:20:43;;;;;;;7.43;2.90;;;;;;;16.03;77.90;101293.75;6038652;28;20044;-65
2022/08/24 05:23:39;;;;;;;7.93;3.00;;;;;;;16.04;77.43;101280.19;6050321;28;20053;-64
2022/08/24 05:26:36;;;;;;;7.00;2.60;;;;;;;16.42;76.38;101292.03;6046570;28;20393;-65
2022/08/24 05:29:33;;;;;;;7.55;2.60;;;;;;;17.00;74.23;101296.25;6044256;28;20044;-65
2022/08/24 05:32:29;;;;;;;16.00;3.35;;;;;;;17.93;70.69;101292.59;6048921;28;20042;-64
2022/08/24 05:35:24;;;;;;;5.97;2.43;;;;;;;18.44;68.45;101285.59;6045000;28;20719;-65
2022/08/24 05:38:19;;;;;;;12.40;2.87;;;;;;;18.65;66.74;101277.66;6044347;28;20793;-65
2022/08/24 05:41:16;;;;;;;7.20;2.57;;;;;;;18.99;66.15;101286.03;6049573;28;20539;-65
2022/08/24 05:44:12;;;;;;;5.20;2.40;;;;;;;19.34;65.06;101294.31;6044779;28;20064;-64
2022/08/24 05:47:09;;;;;;;7.25;2.80;;;;;;;19.19;65.59;101288.09;6043817;28;20491;-65
2022/08/24 05:50:05;;;;;;;6.22;2.70;;;;;;;19.57;63.19;101289.63;6042909;28;20057;-66
2022/08/24 05:53:00;;;;;;;9.05;2.70;;;;;;;19.58;64.05;101283.22;6048854;28;20029;-65
2022/08/24 05:55:55;;;;;;;5.77;2.60;;;;;;;20.09;62.40;101283.94;6048920;28;20084;-65
2022/08/24 05:58:52;;;;;;;4.83;2.30;;;;;;;20.53;60.41;101302.56;6042635;28;20040;-66
2022/08/24 06:01:48;;;;;;;8.10;3.17;;;;;;;20.22;61.66;101283.22;6048440;28;20059;-65
2022/08/24 06:04:43;;;;;;;6.93;2.80;;;;;;;20.51;60.86;101288.44;6048393;28;20065;-65
2022/08/24 06:07:39;;;;;;;8.57;2.80;;;;;;;20.84;58.91;101294.91;6028802;28;20491;-66
2022/08/24 06:10:39;;;;;;;3.78;2.65;;;;;;;20.75;60.16;101302.31;6045159;28;20473;-66
2022/08/24 06:13:35;;;;;;;7.25;2.95;;;;;;;20.78;59.02;101299.22;6046565;28;20037;-64
2022/08/24 06:16:34;;;;;;;4.03;2.50;;;;;;;20.64;59.73;101299.31;6036910;28;20140;-65
2022/08/24 06:19:29;;;;;;;6.03;2.60;;;;;;;20.33;60.07;101313.19;6046513;28;20061;-65
2022/08/24 06:22:25;;;;;;;9.17;2.70;;;;;;;20.06;61.09;101304.00;6044629;28;20397;-64
2022/08/24 06:28:34;;;;;;;4.28;2.30;;;;;;;20.53;59.52;101286.38;6039334;28;20525;-64
2022/08/24 06:31:29;;;;;;;5.57;2.60;;;;;;;20.47;59.67;101319.50;6038955;28;20049;-64
2022/08/24 06:34:25;;;;;;;5.50;2.33;;;;;;;20.48;60.37;101321.19;6045583;28;20032;-64
2022/08/24 06:37:25;;;;;;;5.43;2.45;;;;;;;20.78;58.92;101311.84;6043279;28;20037;-65
2022/08/24 06:40:20;;;;;;;;;;;;;;;21.00;58.76;101321.53;6037238;28;20128;-65
2022/08/24 06:43:16;;;;;;;6.88;2.63;;;;;;;21.67;56.15;101310.00;6036718;28;19917;-64
2022/08/24 06:46:11;;;;;;;6.47;2.80;;;;;;;21.58;56.53;101324.75;6032678;28;20033;-65
2022/08/24 06:49:07;;;;;;;8.07;2.45;;;;;;;21.16;57.87;101310.44;6045132;28;20040;-65
2022/08/24 06:52:05;;;;;;;8.40;3.13;;;;;;;20.93;58.75;101314.41;6048868;28;20041;-65
2022/08/24 06:55:01;;;;;;;6.45;2.65;;;;;;;20.87;59.02;101310.69;6040716;28;20164;-64
2022/08/24 06:57:57;;;;;;;5.22;3.15;;;;;;;21.21;58.62;101318.78;6032537;28;20088;-65
2022/08/24 07:00:53;;;;;;;5.20;2.22;;;;;;;21.60;57.55;101328.91;6030230;28;20049;-66
2022/08/24 07:03:49;;;;;;;6.68;2.80;;;;;;;21.21;58.50;101328.72;6039429;28;20094;-65
2022/08/24 07:06:45;;;;;;;7.22;2.90;;;;;;;21.22;58.10;101320.44;6045512;28;20045;-65
2022/08/24 07:09:40;;;;;;;6.63;2.43;;;;;;;21.81;56.79;101327.91;6043561;28;20038;-64
2022/08/24 07:12:35;;;;;;;4.80;2.23;;;;;;;21.86;56.67;101328.13;6035953;28;20145;-64
2022/08/24 07:15:31;;;;;;;5.63;3.33;;;;;;;21.90;56.30;101324.81;6037811;28;20540;-64
2022/08/24 07:18:27;;;;;;;7.25;2.60;;;;;;;22.08;56.70;101335.06;6042288;28;20042;-65
2022/08/24 07:21:22;;;;;;;7.28;2.53;;;;;;;22.14;56.35;101341.50;6034515;28;20135;-64
2022/08/24 07:24:18;;;;;;;4.43;2.37;;;;;;;22.70;54.72;101328.41;6044690;28;20034;-65
2022/08/24 07:27:13;;;;;;;4.23;2.33;;;;;;;22.57;55.38;101341.94;6044276;28;20037;-64
2022/08/24 07:30:09;;;;;;;5.88;2.70;;;;;;;22.73;54.56;101341.53;6043097;28;20124;-65
2022/08/24 07:33:04;;;;;;;4.18;2.17;;;;;;;23.28;53.24;101346.41;6046646;28;20461;-64
2022/08/24 07:36:00;;;;;;;6.03;2.20;;;;;;;23.55;52.15;101342.56;6036038;28;20116;-64
2022/08/24 07:38:56;;;;;;;5.30;2.03;;;;;;;23.51;51.88;101343.19;6042509;28;20061;-64
2022/08/24 07:41:51;;;;;;;8.65;2.50;;;;;;;23.50;52.42;101349.69;6041300;28;20281;-63
2022/08/24 07:44:46;;;;;;;5.70;2.43;;;;;;;23.20;52.38;101343.09;6040722;28;20030;-64
2022/08/24 07:47:42;;;;;;;7.20;2.37;;;;;;;23.58;52.68;101342.16;6043280;28;20037;-64
2022/08/24 07:50:37;;;;;;;5.60;2.20;;;;;;;23.69;52.33;101348.75;6041762;28;20033;-65
2022/08/24 07:53:34;;;;;;;4.47;2.30;;;;;;;24.17;50.96;101341.81;6040030;28;20362;-66
2022/08/24 07:56:30;;;;;;;4.50;2.30;;;;;;;24.21;50.13;101347.63;6046755;28;20744;-65
2022/08/24 07:59:25;;;;;;;5.07;2.33;;;;;;;24.38;50.59;101340.59;6035017;28;20041;-64
2022/08/24 08:02:21;;;;;;;8.70;2.30;;;;;;;24.34;49.90;101342.09;6033891;28;20030;-65
2022/08/24 08:05:20;;;;;;;4.72;2.30;;;;;;;24.20;50.05;101345.97;6039106;28;20289;-65
2022/08/24 08:08:15;;;;;;;4.90;2.05;;;;;;;24.51;50.13;101358.66;6033961;28;20030;-65
2022/08/24 08:11:11;;;;;;;3.60;2.10;;;;;;;24.66;49.13;101359.13;6046484;28;20430;-64
2022/08/24 08:14:06;;;;;;;5.20;2.33;;;;;;;24.99;48.45;101348.81;6033842;28;20296;-65
2022/08/24 08:17:02;;;;;;;4.22;1.92;;;;;;;25.13;47.64;101352.22;6041355;28;20273;-65
2022/08/24 08:19:57;;;;;;;4.78;2.10;;;;;;;25.48;47.02;101345.16;6033659;28;20038;-64
2022/08/24 08:26:12;;;;;;;5.30;2.17;;;;;;;25.60;46.46;101358.81;6042905;28;20033;-65
2022/08/24 08:29:09;;;;;;;8.00;2.25;;;;;;;25.61;46.48;101350.41;6034441;28;20044;-65
2022/08/24 08:32:06;;;;;;;5.03;2.28;;;;;;;25.93;46.18;101356.44;6045108;28;20025;-64
2022/08/24 08:35:01;;;;;;;3.80;2.20;;;;;;;26.08;44.90;101358.75;6043824;28;20470;-65
2022/08/24 08:37:57;;;;;;;5.93;2.22;;;;;;;26.22;44.99;101346.66;6040695;28;20061;-64
2022/08/24 08:41:10;;;;;;;4.93;2.35;;;;;;;25.99;44.85;101350.91;6040092;28;20042;-65
2022/08/24 08:44:12;;;;;;;7.82;2.20;;;;;;;26.10;43.44;101356.63;6043881;28;20501;-65
2022/08/24 08:47:18;;;;;;;5.63;1.92;;;;;;;26.07;43.59;101338.03;6040356;28;20030;-65
2022/08/24 08:50:17;;;;;;;;;;;;;;;26.11;42.42;101350.13;6033554;28;20046;-64
2022/08/24 08:53:31;;;;;;;4.38;1.73;;;;;;;25.81;44.33;101356.41;6057385;28;19921;-64
2022/08/24 08:56:50;;;;;;;4.28;1.48;;;;;;;26.16;43.17;101353.00;6045521;28;20041;-64
2022/08/24 08:59:52;;;;;;;;;;;;;;;26.27;41.55;101344.88;6055467;28;20037;-64
2022/08/24 09:03:06;;;;;;;3.05;1.70;;;;;;;26.40;41.19;101344.66;6035923;28;20013;-65
2022/08/24 09:06:13;;;;;;;3.15;1.60;;;;;;;26.83;41.08;101343.50;6034693;28;20121;-64
2022/08/24 09:09:26;;;;;;;3.83;1.73;;;;;;;26.77;40.22;101342.53;6043657;28;20029;-65
2022/08/24 09:12:51;;;;;;;4.47;1.45;;;;;;;26.70;39.39;101330.13;6031338;28;20041;-64
2022/08/24 09:15:59;;;;;;;5.15;1.80;;;;;;;26.96;39.74;101337.84;6033651;28;20114;-65
2022/08/24 09:19:19;;;;;;;2.50;1.42;;;;;;;26.91;38.53;101341.25;6038139;28;20523;-66
2022/08/24 09:22:16;;;;;;;2.70;1.73;;;;;;;26.66;39.26;101326.22;6054885;28;20041;-66
2022/08/24 09:25:23;;;;;;;4.90;1.48;;;;;;;26.99;37.69;101330.00;6037443;28;20038;-64
2022/08/24 09:28:37;;;;;;;3.13;1.50;;;;;;;26.89;38.22;101335.25;6040583;28;20714;-64
2022/08/24 09:31:46;;;;;;;5.53;1.88;;;;;;;26.40;38.85;101333.78;6054665;28;20038;-65
2022/08/24 09:34:51;;;;;;;2.13;1.30;;;;;;;26.74;37.93;101336.75;6040429;28;20113;-65
2022/08/24 09:38:25;;;;;;;5.68;1.95;;;;;;;27.13;37.90;101317.78;6052393;28;20656;-64
2022/08/24 09:41:25;;;;;;;4.18;1.67;;;;;;;27.56;38.33;101327.41;6024120;28;20038;-64
2022/08/24 09:44:45;;;;;;;4.72;1.73;;;;;;;27.66;36.82;101319.44;6040820;28;20044;-65
2022/08/24 09:48:09;;;;;;;3.05;1.55;;;;;;;27.53;36.23;101317.00;6032912;28;20076;-65
2022/08/24 09:51:32;;;;;;;3.53;1.70;;;;;;;27.51;37.09;101305.50;6058851;28;20044;-65
2022/08/24 09:54:58;;;;;;;4.40;1.83;;;;;;;27.51;37.73;101324.56;6043487;28;20033;-64
2022/08/24 09:58:42;;;;;;;4.75;2.00;;;;;;;27.62;37.95;101310.09;6036391;28;20462;-65
2022/08/24 10:01:56;;;;;;;4.22;1.58;;;;;;;27.81;36.00;101319.72;6031234;28;20410;-65
2022/08/24 10:05:22;;;;;;;3.70;1.75;;;;;;;28.39;35.01;101310.38;6032229;28;20068;-65
2022/08/24 10:08:43;;;;;;;4.30;1.80;;;;;;;28.23;35.46;101312.03;6041076;28;20034;-65
2022/08/24 10:11:51;;;;;;;3.20;1.60;;;;;;;28.15;34.93;101299.66;6037287;28;20032;-64
2022/08/24 10:15:05;;;;;;;3.30;1.70;;;;;;;28.04;35.58;101319.63;6040031;28;20038;-64
2022/08/24 10:18:12;;;;;;;3.17;1.42;;;;;;;27.85;34.46;101320.91;6046611;28;20085;-64
2022/08/24 10:21:16;;;;;;;6.85;1.92;;;;;;;28.09;33.94;101308.81;6040926;28;20026;-66
2022/08/24 10:24:34;;;;;;;7.95;1.60;;;;;;;28.44;33.03;101313.19;6036513;28;20721;-64
2022/08/24 10:27:43;;;;;;;2.97;1.50;;;;;;;27.93;32.69;101312.31;6063618;28;20029;-65
2022/08/24 10:30:56;;;;;;;3.33;1.40;;;;;;;28.36;32.77;101308.97;6043648;28;20056;-64
2022/08/24 10:34:28;;;;;;;5.40;1.95;;;;;;;28.74;32.96;101303.59;6060533;28;20393;-65
2022/08/24 10:37:39;;;;;;;2.40;1.45;;;;;;;29.10;32.00;101280.31;6043986;28;20047;-64
2022/08/24 10:40:48;;;;;;;3.78;2.05;;;;;;;28.93;32.36;101282.25;6030071;28;20041;-65
2022/08/24 10:43:55;;;;;;;5.60;1.70;;;;;;;29.54;31.25;101285.75;6035045;28;20069;-64
2022/08/24 10:46:59;;;;;;;5.00;1.60;;;;;;;29.17;30.54;101283.66;6046229;28;20042;-64
2022/08/24 10:50:28;;;;;;;2.67;1.50;;;;;;;29.03;30.04;101293.31;6047986;28;20042;-65
2022/08/24 10:53:29;;;;;;;5.10;1.80;;;;;;;29.21;31.82;101292.19;6034146;28;20058;-66
2022/08/24 10:56:49;;;;;;;3.90;1.60;;;;;;;28.84;30.92;101292.78;6046927;28;20033;-65
2022/08/24 10:59:52;;;;;;;3.13;1.40;;;;;;;29.01;29.98;101291.91;6040145;28;20038;-65
2022/08/24 11:02:47;;;;;;;4.72;1.33;;;;;;;29.13;31.03;101277.06;6055020;28;20473;-65
2022/08/24 11:05:48;;;;;;;3.08;1.40;;;;;;;28.83;30.99;101279.41;6041607;28;20065;-64
2022/08/24 11:09:14;;;;;;;5.50;1.40;;;;;;;28.95;30.98;101282.81;6042795;28;20034;-65
2022/08/24 11:12:24;;;;;;;4.60;1.70;;;;;;;29.05;32.24;101280.25;6035641;28;20413;-65
2022/08/24 11:15:26;;;;;;;6.70;1.70;;;;;;;29.09;32.44;101275.91;6032855;28;20089;-65
2022/08/24 11:18:22;;;;;;;5.50;1.83;;;;;;;29.15;32.23;101272.16;6045730;28;20034;-65
2022/08/24 11:21:31;;;;;;;3.28;1.50;;;;;;;29.34;31.74;101280.88;6034534;28;20042;-65
2022/08/24 11:24:37;;;;;;;4.20;1.77;;;;;;;29.74;30.91;101266.81;6037226;28;20366;-64
2022/08/24 11:27:36;;;;;;;2.58;1.50;;;;;;;29.54;30.89;101269.34;6044156;28;20041;-65
2022/08/24 11:30:37;;;;;;;6.90;1.70;;;;;;;29.11;31.10;101273.75;6045287;28;20465;-66
2022/08/24 11:33:44;;;;;;;2.67;1.55;;;;;;;29.46;30.89;101274.19;6044613;28;20041;-65
2022/08/24 11:36:40;;;;;;;5.95;2.05;;;;;;;29.97;30.75;101264.63;6041903;28;20065;-66
2022/08/24 11:39:36;;;;;;;7.88;2.08;;;;;;;30.07;30.90;101259.22;6047166;28;20030;-65
2022/08/24 11:42:37;;;;;;;6.10;2.00;;;;;;;30.18;31.55;101254.66;6045528;28;20040;-65
2022/08/24 11:45:59;;;;;;;5.80;1.90;;;;;;;30.35;31.30;101260.81;6035885;28;20508;-65
2022/08/24 11:49:16;;;;;;;5.13;2.20;;;;;;;30.36;30.87;101261.63;6034334;28;20472;-65
2022/08/24 11:52:42;;;;;;;5.00;1.90;;;;;;;29.98;30.75;101259.94;6036535;28;20113;-65
2022/08/24 11:56:09;;;;;;;3.13;1.85;;;;;;;29.78;32.01;101265.22;6041542;28;20401;-65
2022/08/24 11:59:12;;;;;;;6.60;2.20;;;;;;;29.72;32.18;101263.50;6029941;28;20081;-65
2022/08/24 12:02:15;;;;;;;5.55;1.92;;;;;;;29.76;31.46;101256.47;6033295;28;20164;-65
2022/08/24 12:05:36;;;;;;;4.95;1.92;;;;;;;29.98;31.01;101259.94;6048307;28;20065;-65
2022/08/24 12:08:50;;;;;;;3.72;1.83;;;;;;;30.25;31.56;101260.72;6033483;28;20041;-65
2022/08/24 12:12:07;;;;;;;4.95;2.10;;;;;;;30.08;31.79;101265.53;6029340;28;20087;-65
2022/08/24 12:15:18;;;;;;;8.25;1.90;;;;;;;30.43;31.43;101245.81;6034249;28;20112;-65
2022/08/24 12:18:25;;;;;;;6.53;2.15;;;;;;;30.35;31.08;101251.75;6049867;28;20030;-66
2022/08/24 12:21:24;;;;;;;11.50;1.98;;;;;;;30.10;31.72;101257.88;6027753;28;20088;-65
2022/08/24 12:24:30;;;;;;;5.40;1.90;;;;;;;30.23;31.44;101246.47;6034168;28;20087;-65
2022/08/24 12:27:31;;;;;;;4.38;2.10;;;;;;;30.63;30.55;101248.66;6032178;28;20041;-65
2022/08/24 12:30:26;;;;;;;4.20;2.00;;;;;;;31.06;29.81;101255.75;6032028;28;20144;-65
2022/08/24 12:33:28;;;;;;;4.68;2.05;;;;;;;31.17;30.30;101258.25;6037299;28;20042;-66
2022/08/24 12:36:31;;;;;;;7.05;1.85;;;;;;;30.94;29.76;101245.03;6033483;28;20077;-65
2022/08/24 12:39:33;;;;;;;9.25;2.00;;;;;;;31.23;29.33;101234.41;6037426;28;20041;-65
2022/08/24 12:42:56;;;;;;;5.50;2.42;;;;;;;30.82;29.92;101251.78;6031317;28;20359;-65
2022/08/24 12:45:54;;;;;;;4.13;2.05;;;;;;;31.13;28.91;101248.09;6031873;28;20029;-65
2022/08/24 12:48:58;;;;;;;6.90;1.90;;;;;;;30.94;29.35;101246.94;6041221;28;20077;-65
2022/08/24 12:52:29;;;;;;;4.32;2.10;;;;;;;31.28;28.64;101248.16;6043052;28;20042;-65
2022/08/24 12:55:46;;;;;;;;;;;;;;;30.96;28.89;101253.78;6045652;28;20049;-65
2022/08/24 12:59:01;;;;;;;;;;;;;;;30.90;28.46;101248.53;6036711;28;19913;-65
2022/08/24 13:02:04;;;;;;;6.10;1.80;;;;;;;30.92;28.99;101239.00;6035536;28;19917;-65
2022/08/24 13:05:09;;;;;;;3.75;1.77;;;;;;;31.35;28.59;101239.66;6058311;28;20034;-66
2022/08/24 13:08:10;;;;;;;5.28;2.08;;;;;;;31.29;27.81;101248.97;6033292;28;20113;-65
2022/08/24 13:11:27;;;;;;;5.43;2.20;;;;;;;31.26;28.78;101233.88;6041623;28;20038;-64
2022/08/24 13:14:25;;;;;;;3.83;1.98;;;;;;;31.05;28.38;101232.19;6043307;28;20034;-64
2022/08/24 13:17:21;;;;;;;5.05;2.22;;;;;;;31.04;28.67;101242.31;6044131;28;20042;-66
2022/08/24 13:20:27;;;;;;;4.50;2.00;;;;;;;31.02;29.04;101235.44;6045156;28;20042;-65
2022/08/24 13:23:23;;;;;;;3.53;2.20;;;;;;;31.43;28.44;101234.47;6033625;28;20364;-65
2022/08/24 13:26:25;;;;;;;5.25;1.73;;;;;;;31.28;28.37;101230.88;6036444;28;20389;-66
2022/08/24 13:29:25;;;;;;;5.10;2.40;;;;;;;31.13;29.01;101228.91;6037565;28;20041;-65
2022/08/24 13:32:29;;;;;;;4.63;1.90;;;;;;;31.16;28.98;101217.41;6059300;28;20478;-65
2022/08/24 13:35:39;;;;;;;5.25;2.10;;;;;;;31.22;29.13;101230.06;6034250;28;20579;-65
2022/08/24 13:38:34;;;;;;;5.70;1.95;;;;;;;31.80;27.66;101224.13;6036116;28;20034;-65
2022/08/24 13:41:44;;;;;;;5.00;1.80;;;;;;;31.62;27.46;101221.94;6044526;28;20033;-65
2022/08/24 13:44:48;;;;;;;8.25;2.25;;;;;;;31.69;28.31;101222.47;6033879;28;20044;-65
2022/08/24 13:48:02;;;;;;;7.25;2.60;;;;;;;31.76;27.60;101203.84;6039646;28;20408;-65
2022/08/24 13:51:15;;;;;;;4.43;2.10;;;;;;;31.88;28.69;101213.72;6044834;28;20044;-65
2022/08/24 13:54:22;;;;;;;4.80;2.03;;;;;;;31.77;27.83;101210.94;6062755;28;20034;-66
2022/08/24 13:57:39;;;;;;;5.70;1.83;;;;;;;31.71;27.94;101216.72;6036701;28;20026;-65
2022/08/24 14:00:44;;;;;;;3.58;1.90;;;;;;;31.51;28.71;101213.94;6035261;28;20025;-64
2022/08/24 14:03:51;;;;;;;4.50;2.20;;;;;;;31.46;28.92;101214.78;6038453;28;20038;-65
2022/08/24 14:06:54;;;;;;;2.95;1.80;;;;;;;31.73;27.88;101212.59;6044803;28;20038;-65
2022/08/24 14:10:03;;;;;;;5.43;2.20;;;;;;;31.97;27.83;101195.56;6063783;28;20045;-65
2022/08/24 14:13:29;;;;;;;4.63;1.90;;;;;;;32.33;26.38;101200.78;6031468;28;20030;-65
2022/08/24 14:20:07;;;;;;;4.03;2.08;;;;;;;31.82;27.09;101212.88;6043157;28;20026;-66